sensor_id;sensor_type;location;lat;lon;timestamp;P1;durP1;ratioP1;P2;durP2;ratioP2
64063;SDS011;50314;50.618;10.642;2023-05-07T00:02:21;1.77;;;1.67;;
64063;SDS011;50314;50.618;10.642;2023-05-07T00:04:47;1.70;;;1.60;;
64063;SDS011;50314;50.618;10.642;2023-05-07T00:07:13;1.42;;;1.33;;
64063;SDS011;50314;50.618;10.642;2023-05-07T00:09:39;1.70;;;1.60;;
64063;SDS011;50314;50.618;10.642;2023-05-07T00:12:05;2.03;;;1.60;;
64063;SDS011;50314;50.618;10.642;2023-05-07T00:14:30;2.10;;;1.88;;
64063;SDS011;50314;50.618;10.642;2023-05-07T00:16:56;1.52;;;1.42;;
64063;SDS011;50314;50.618;10.642;2023-05-07T00:19:21;2.00;;;1.77;;
64063;SDS011;50314;50.618;10.642;2023-05-07T00:21:47;1.88;;;1.60;;
64063;SDS011;50314;50.618;10.642;2023-05-07T00:24:12;1.65;;;1.55;;
64063;SDS011;50314;50.618;10.642;2023-05-07T00:26:37;1.50;;;1.40;;
64063;SDS011;50314;50.618;10.642;2023-05-07T00:29:05;2.13;;;1.80;;
64063;SDS011;50314;50.618;10.642;2023-05-07T00:31:31;1.85;;;1.65;;
64063;SDS011;50314;50.618;10.642;2023-05-07T00:33:56;1.77;;;1.67;;
64063;SDS011;50314;50.618;10.642;2023-05-07T00:36:22;1.30;;;1.20;;
64063;SDS011;50314;50.618;10.642;2023-05-07T00:38:47;1.92;;;1.73;;
64063;SDS011;50314;50.618;10.642;2023-05-07T00:41:13;1.70;;;1.60;;
64063;SDS011;50314;50.618;10.642;2023-05-07T00:43:38;1.75;;;1.63;;
64063;SDS011;50314;50.618;10.642;2023-05-07T00:46:03;1.65;;;1.55;;
64063;SDS011;50314;50.618;10.642;2023-05-07T00:48:30;1.73;;;1.63;;
64063;SDS011;50314;50.618;10.642;2023-05-07T00:50:56;1.70;;;1.60;;
64063;SDS011;50314;50.618;10.642;2023-05-07T00:53:22;2.35;;;1.58;;
64063;SDS011;50314;50.618;10.642;2023-05-07T00:55:47;2.20;;;1.70;;
64063;SDS011;50314;50.618;10.642;2023-05-07T00:58:13;4.15;;;1.70;;
64063;SDS011;50314;50.618;10.642;2023-05-07T01:00:38;1.70;;;1.60;;
64063;SDS011;50314;50.618;10.642;2023-05-07T01:03:04;2.05;;;1.75;;
64063;SDS011;50314;50.618;10.642;2023-05-07T01:05:30;1.77;;;1.67;;
64063;SDS011;50314;50.618;10.642;2023-05-07T01:07:56;2.05;;;1.80;;
64063;SDS011;50314;50.618;10.642;2023-05-07T01:10:22;1.63;;;1.52;;
64063;SDS011;50314;50.618;10.642;2023-05-07T01:12:47;1.58;;;1.45;;
64063;SDS011;50314;50.618;10.642;2023-05-07T01:15:14;1.77;;;1.67;;
64063;SDS011;50314;50.618;10.642;2023-05-07T01:17:41;2.00;;;1.80;;
64063;SDS011;50314;50.618;10.642;2023-05-07T01:20:07;1.73;;;1.63;;
64063;SDS011;50314;50.618;10.642;2023-05-07T01:22:35;2.50;;;2.30;;
64063;SDS011;50314;50.618;10.642;2023-05-07T01:25:03;1.88;;;1.70;;
64063;SDS011;50314;50.618;10.642;2023-05-07T01:27:30;2.13;;;1.88;;
64063;SDS011;50314;50.618;10.642;2023-05-07T01:29:55;2.15;;;1.60;;
64063;SDS011;50314;50.618;10.642;2023-05-07T01:32:27;2.10;;;1.90;;
64063;SDS011;50314;50.618;10.642;2023-05-07T01:34:57;1.73;;;1.63;;
64063;SDS011;50314;50.618;10.642;2023-05-07T01:37:25;2.28;;;1.73;;
64063;SDS011;50314;50.618;10.642;2023-05-07T01:39:51;2.25;;;2.05;;
64063;SDS011;50314;50.618;10.642;2023-05-07T01:47:08;1.73;;;1.40;;
64063;SDS011;50314;50.618;10.642;2023-05-07T01:49:34;2.90;;;2.00;;
64063;SDS011;50314;50.618;10.642;2023-05-07T01:52:00;2.55;;;1.95;;
64063;SDS011;50314;50.618;10.642;2023-05-07T01:54:26;2.13;;;1.92;;
64063;SDS011;50314;50.618;10.642;2023-05-07T01:56:58;2.40;;;1.85;;
64063;SDS011;50314;50.618;10.642;2023-05-07T01:59:23;2.35;;;1.88;;
64063;SDS011;50314;50.618;10.642;2023-05-07T02:01:49;2.53;;;1.95;;
64063;SDS011;50314;50.618;10.642;2023-05-07T02:04:14;2.13;;;1.92;;
64063;SDS011;50314;50.618;10.642;2023-05-07T02:06:40;2.10;;;1.90;;
64063;SDS011;50314;50.618;10.642;2023-05-07T02:09:05;2.28;;;2.08;;
64063;SDS011;50314;50.618;10.642;2023-05-07T02:11:31;2.60;;;2.20;;
64063;SDS011;50314;50.618;10.642;2023-05-07T02:13:56;2.00;;;1.80;;
64063;SDS011;50314;50.618;10.642;2023-05-07T02:16:21;1.85;;;1.70;;
64063;SDS011;50314;50.618;10.642;2023-05-07T02:18:48;2.20;;;2.00;;
64063;SDS011;50314;50.618;10.642;2023-05-07T02:21:13;2.20;;;1.88;;
64063;SDS011;50314;50.618;10.642;2023-05-07T02:23:39;2.25;;;2.05;;
64063;SDS011;50314;50.618;10.642;2023-05-07T02:26:04;2.10;;;1.90;;
64063;SDS011;50314;50.618;10.642;2023-05-07T02:28:30;2.10;;;1.90;;
64063;SDS011;50314;50.618;10.642;2023-05-07T02:30:55;1.98;;;1.52;;
64063;SDS011;50314;50.618;10.642;2023-05-07T02:33:23;2.45;;;2.03;;
64063;SDS011;50314;50.618;10.642;2023-05-07T02:35:49;2.53;;;2.33;;
64063;SDS011;50314;50.618;10.642;2023-05-07T02:38:14;2.13;;;1.92;;
64063;SDS011;50314;50.618;10.642;2023-05-07T02:40:40;2.10;;;1.90;;
64063;SDS011;50314;50.618;10.642;2023-05-07T02:43:05;1.98;;;1.58;;
64063;SDS011;50314;50.618;10.642;2023-05-07T02:45:31;2.38;;;2.17;;
64063;SDS011;50314;50.618;10.642;2023-05-07T02:47:58;2.13;;;1.92;;
64063;SDS011;50314;50.618;10.642;2023-05-07T02:50:23;2.30;;;2.05;;
64063;SDS011;50314;50.618;10.642;2023-05-07T02:52:49;2.30;;;2.10;;
64063;SDS011;50314;50.618;10.642;2023-05-07T02:55:15;2.20;;;2.00;;
64063;SDS011;50314;50.618;10.642;2023-05-07T02:57:40;2.20;;;1.92;;
64063;SDS011;50314;50.618;10.642;2023-05-07T03:00:12;2.33;;;2.13;;
64063;SDS011;50314;50.618;10.642;2023-05-07T03:02:38;2.40;;;1.95;;
64063;SDS011;50314;50.618;10.642;2023-05-07T03:05:03;2.50;;;2.30;;
64063;SDS011;50314;50.618;10.642;2023-05-07T03:07:29;2.17;;;1.70;;
64063;SDS011;50314;50.618;10.642;2023-05-07T03:09:55;2.30;;;2.10;;
64063;SDS011;50314;50.618;10.642;2023-05-07T03:12:20;2.55;;;2.35;;
64063;SDS011;50314;50.618;10.642;2023-05-07T03:14:46;2.10;;;1.90;;
64063;SDS011;50314;50.618;10.642;2023-05-07T03:17:11;2.22;;;2.03;;
64063;SDS011;50314;50.618;10.642;2023-05-07T03:19:36;2.50;;;2.30;;
64063;SDS011;50314;50.618;10.642;2023-05-07T03:22:02;2.40;;;2.20;;
64063;SDS011;50314;50.618;10.642;2023-05-07T03:24:27;2.13;;;1.92;;
64063;SDS011;50314;50.618;10.642;2023-05-07T03:26:53;3.08;;;2.20;;
64063;SDS011;50314;50.618;10.642;2023-05-07T03:29:18;2.30;;;2.10;;
64063;SDS011;50314;50.618;10.642;2023-05-07T03:31:44;2.30;;;2.00;;
64063;SDS011;50314;50.618;10.642;2023-05-07T03:34:10;2.80;;;2.25;;
64063;SDS011;50314;50.618;10.642;2023-05-07T03:36:35;2.75;;;2.20;;
64063;SDS011;50314;50.618;10.642;2023-05-07T03:39:01;2.30;;;2.10;;
64063;SDS011;50314;50.618;10.642;2023-05-07T03:41:26;2.40;;;2.20;;
64063;SDS011;50314;50.618;10.642;2023-05-07T03:43:51;2.22;;;1.95;;
64063;SDS011;50314;50.618;10.642;2023-05-07T03:46:17;2.15;;;1.92;;
64063;SDS011;50314;50.618;10.642;2023-05-07T03:48:42;2.58;;;1.98;;
64063;SDS011;50314;50.618;10.642;2023-05-07T03:51:08;1.92;;;1.77;;
64063;SDS011;50314;50.618;10.642;2023-05-07T03:53:33;2.17;;;2.00;;
64063;SDS011;50314;50.618;10.642;2023-05-07T03:55:59;2.45;;;2.25;;
64063;SDS011;50314;50.618;10.642;2023-05-07T03:58:24;2.60;;;2.40;;
64063;SDS011;50314;50.618;10.642;2023-05-07T04:00:49;2.38;;;2.13;;
64063;SDS011;50314;50.618;10.642;2023-05-07T04:03:15;2.10;;;1.95;;
64063;SDS011;50314;50.618;10.642;2023-05-07T04:05:40;2.63;;;2.30;;
64063;SDS011;50314;50.618;10.642;2023-05-07T04:08:06;2.33;;;1.95;;
64063;SDS011;50314;50.618;10.642;2023-05-07T04:10:33;2.67;;;2.40;;
64063;SDS011;50314;50.618;10.642;2023-05-07T04:12:59;2.58;;;2.38;;
64063;SDS011;50314;50.618;10.642;2023-05-07T04:15:24;2.38;;;2.15;;
64063;SDS011;50314;50.618;10.642;2023-05-07T04:17:50;2.83;;;2.58;;
64063;SDS011;50314;50.618;10.642;2023-05-07T04:20:16;2.75;;;2.13;;
64063;SDS011;50314;50.618;10.642;2023-05-07T04:22:41;2.50;;;2.30;;
64063;SDS011;50314;50.618;10.642;2023-05-07T04:25:08;2.75;;;2.25;;
64063;SDS011;50314;50.618;10.642;2023-05-07T04:27:36;2.25;;;2.05;;
64063;SDS011;50314;50.618;10.642;2023-05-07T04:30:02;2.50;;;2.30;;
64063;SDS011;50314;50.618;10.642;2023-05-07T04:32:28;2.50;;;2.30;;
64063;SDS011;50314;50.618;10.642;2023-05-07T04:34:55;2.33;;;2.13;;
64063;SDS011;50314;50.618;10.642;2023-05-07T04:37:21;2.55;;;2.35;;
64063;SDS011;50314;50.618;10.642;2023-05-07T04:39:47;2.28;;;2.08;;
64063;SDS011;50314;50.618;10.642;2023-05-07T04:42:15;2.22;;;2.03;;
64063;SDS011;50314;50.618;10.642;2023-05-07T04:44:43;2.10;;;1.80;;
64063;SDS011;50314;50.618;10.642;2023-05-07T04:47:09;2.47;;;2.17;;
64063;SDS011;50314;50.618;10.642;2023-05-07T04:49:35;2.65;;;2.45;;
64063;SDS011;50314;50.618;10.642;2023-05-07T04:52:00;2.72;;;2.53;;
64063;SDS011;50314;50.618;10.642;2023-05-07T04:54:26;2.28;;;2.00;;
64063;SDS011;50314;50.618;10.642;2023-05-07T04:56:51;2.40;;;2.20;;
64063;SDS011;50314;50.618;10.642;2023-05-07T04:59:17;2.10;;;1.90;;
64063;SDS011;50314;50.618;10.642;2023-05-07T05:01:42;2.22;;;2.00;;
64063;SDS011;50314;50.618;10.642;2023-05-07T05:04:08;2.97;;;2.45;;
64063;SDS011;50314;50.618;10.642;2023-05-07T05:06:33;2.40;;;2.20;;
64063;SDS011;50314;50.618;10.642;2023-05-07T05:08:59;2.97;;;2.45;;
64063;SDS011;50314;50.618;10.642;2023-05-07T05:11:24;3.03;;;2.42;;
64063;SDS011;50314;50.618;10.642;2023-05-07T05:13:50;2.60;;;2.38;;
64063;SDS011;50314;50.618;10.642;2023-05-07T05:16:15;2.38;;;2.15;;
64063;SDS011;50314;50.618;10.642;2023-05-07T05:18:41;2.28;;;1.98;;
64063;SDS011;50314;50.618;10.642;2023-05-07T05:21:06;2.03;;;1.80;;
64063;SDS011;50314;50.618;10.642;2023-05-07T05:23:31;2.97;;;2.42;;
64063;SDS011;50314;50.618;10.642;2023-05-07T05:25:57;2.78;;;2.42;;
64063;SDS011;50314;50.618;10.642;2023-05-07T05:28:23;2.75;;;2.55;;
64063;SDS011;50314;50.618;10.642;2023-05-07T05:30:49;2.35;;;2.05;;
64063;SDS011;50314;50.618;10.642;2023-05-07T05:33:15;2.50;;;2.30;;
64063;SDS011;50314;50.618;10.642;2023-05-07T05:35:40;2.17;;;1.98;;
64063;SDS011;50314;50.618;10.642;2023-05-07T05:38:06;2.60;;;2.40;;
64063;SDS011;50314;50.618;10.642;2023-05-07T05:40:31;2.10;;;2.00;;
64063;SDS011;50314;50.618;10.642;2023-05-07T05:42:58;2.60;;;2.15;;
64063;SDS011;50314;50.618;10.642;2023-05-07T05:45:24;3.42;;;2.60;;
64063;SDS011;50314;50.618;10.642;2023-05-07T05:47:49;2.53;;;2.15;;
64063;SDS011;50314;50.618;10.642;2023-05-07T05:50:14;2.53;;;2.20;;
64063;SDS011;50314;50.618;10.642;2023-05-07T05:52:40;2.80;;;2.28;;
64063;SDS011;50314;50.618;10.642;2023-05-07T05:55:06;2.47;;;2.28;;
64063;SDS011;50314;50.618;10.642;2023-05-07T05:57:32;2.50;;;2.30;;
64063;SDS011;50314;50.618;10.642;2023-05-07T05:59:57;2.65;;;2.45;;
64063;SDS011;50314;50.618;10.642;2023-05-07T06:02:24;2.75;;;2.10;;
64063;SDS011;50314;50.618;10.642;2023-05-07T06:04:49;2.83;;;2.63;;
64063;SDS011;50314;50.618;10.642;2023-05-07T06:07:15;2.42;;;2.22;;
64063;SDS011;50314;50.618;10.642;2023-05-07T06:09:40;3.78;;;2.13;;
64063;SDS011;50314;50.618;10.642;2023-05-07T06:12:05;2.50;;;2.30;;
64063;SDS011;50314;50.618;10.642;2023-05-07T06:14:31;2.22;;;1.90;;
64063;SDS011;50314;50.618;10.642;2023-05-07T06:16:56;2.35;;;2.15;;
64063;SDS011;50314;50.618;10.642;2023-05-07T06:19:22;2.70;;;1.95;;
64063;SDS011;50314;50.618;10.642;2023-05-07T06:21:49;3.08;;;2.25;;
64063;SDS011;50314;50.618;10.642;2023-05-07T06:24:14;2.63;;;2.20;;
64063;SDS011;50314;50.618;10.642;2023-05-07T06:26:40;3.65;;;2.35;;
64063;SDS011;50314;50.618;10.642;2023-05-07T06:29:06;2.47;;;2.10;;
64063;SDS011;50314;50.618;10.642;2023-05-07T06:31:31;2.25;;;1.95;;
64063;SDS011;50314;50.618;10.642;2023-05-07T06:33:57;2.50;;;2.28;;
64063;SDS011;50314;50.618;10.642;2023-05-07T06:36:23;3.20;;;2.03;;
64063;SDS011;50314;50.618;10.642;2023-05-07T06:38:49;3.95;;;2.20;;
64063;SDS011;50314;50.618;10.642;2023-05-07T06:41:14;3.25;;;2.28;;
64063;SDS011;50314;50.618;10.642;2023-05-07T06:43:40;2.55;;;2.35;;
64063;SDS011;50314;50.618;10.642;2023-05-07T06:46:05;2.42;;;2.10;;
64063;SDS011;50314;50.618;10.642;2023-05-07T06:48:31;3.20;;;2.03;;
64063;SDS011;50314;50.618;10.642;2023-05-07T06:50:56;2.45;;;1.92;;
64063;SDS011;50314;50.618;10.642;2023-05-07T06:53:23;2.40;;;2.15;;
64063;SDS011;50314;50.618;10.642;2023-05-07T06:55:48;3.92;;;2.60;;
64063;SDS011;50314;50.618;10.642;2023-05-07T06:58:14;2.35;;;2.10;;
64063;SDS011;50314;50.618;10.642;2023-05-07T07:00:40;2.40;;;2.20;;
64063;SDS011;50314;50.618;10.642;2023-05-07T07:03:06;2.28;;;2.08;;
64063;SDS011;50314;50.618;10.642;2023-05-07T07:05:31;3.15;;;1.80;;
64063;SDS011;50314;50.618;10.642;2023-05-07T07:07:57;2.70;;;2.20;;
64063;SDS011;50314;50.618;10.642;2023-05-07T07:10:22;2.60;;;2.40;;
64063;SDS011;50314;50.618;10.642;2023-05-07T07:12:48;2.40;;;2.03;;
64063;SDS011;50314;50.618;10.642;2023-05-07T07:15:14;2.45;;;2.10;;
64063;SDS011;50314;50.618;10.642;2023-05-07T07:17:40;2.47;;;2.25;;
64063;SDS011;50314;50.618;10.642;2023-05-07T07:20:06;4.57;;;2.15;;
64063;SDS011;50314;50.618;10.642;2023-05-07T07:22:32;3.17;;;2.28;;
64063;SDS011;50314;50.618;10.642;2023-05-07T07:24:57;2.83;;;2.47;;
64063;SDS011;50314;50.618;10.642;2023-05-07T07:27:23;2.05;;;1.80;;
64063;SDS011;50314;50.618;10.642;2023-05-07T07:29:48;2.97;;;2.33;;
64063;SDS011;50314;50.618;10.642;2023-05-07T07:32:14;2.80;;;2.22;;
64063;SDS011;50314;50.618;10.642;2023-05-07T07:34:39;4.10;;;2.30;;
64063;SDS011;50314;50.618;10.642;2023-05-07T07:37:05;2.40;;;2.20;;
64063;SDS011;50314;50.618;10.642;2023-05-07T07:39:34;2.88;;;2.13;;
64063;SDS011;50314;50.618;10.642;2023-05-07T07:42:00;3.72;;;2.30;;
64063;SDS011;50314;50.618;10.642;2023-05-07T07:46:53;4.22;;;2.80;;
64063;SDS011;50314;50.618;10.642;2023-05-07T07:49:18;5.18;;;3.40;;
64063;SDS011;50314;50.618;10.642;2023-05-07T07:51:44;8.55;;;3.80;;
64063;SDS011;50314;50.618;10.642;2023-05-07T07:54:09;10.32;;;4.30;;
64063;SDS011;50314;50.618;10.642;2023-05-07T07:56:35;9.35;;;4.82;;
64063;SDS011;50314;50.618;10.642;2023-05-07T07:59:00;10.02;;;5.20;;
64063;SDS011;50314;50.618;10.642;2023-05-07T08:01:26;11.45;;;4.75;;
64063;SDS011;50314;50.618;10.642;2023-05-07T08:03:52;8.85;;;3.85;;
64063;SDS011;50314;50.618;10.642;2023-05-07T08:06:17;6.38;;;4.05;;
64063;SDS011;50314;50.618;10.642;2023-05-07T08:08:43;7.38;;;4.15;;
64063;SDS011;50314;50.618;10.642;2023-05-07T08:11:08;7.70;;;3.70;;
64063;SDS011;50314;50.618;10.642;2023-05-07T08:13:34;8.23;;;4.47;;
64063;SDS011;50314;50.618;10.642;2023-05-07T08:16:00;7.13;;;4.38;;
64063;SDS011;50314;50.618;10.642;2023-05-07T08:18:26;5.82;;;3.75;;
64063;SDS011;50314;50.618;10.642;2023-05-07T08:20:53;5.93;;;3.50;;
64063;SDS011;50314;50.618;10.642;2023-05-07T08:23:19;5.40;;;3.83;;
64063;SDS011;50314;50.618;10.642;2023-05-07T08:25:45;4.75;;;3.78;;
64063;SDS011;50314;50.618;10.642;2023-05-07T08:28:10;4.47;;;3.35;;
64063;SDS011;50314;50.618;10.642;2023-05-07T08:30:36;5.18;;;3.78;;
64063;SDS011;50314;50.618;10.642;2023-05-07T08:33:02;5.65;;;3.70;;
64063;SDS011;50314;50.618;10.642;2023-05-07T08:35:27;4.10;;;3.40;;
64063;SDS011;50314;50.618;10.642;2023-05-07T08:37:53;4.25;;;3.45;;
64063;SDS011;50314;50.618;10.642;2023-05-07T08:40:18;6.97;;;3.78;;
64063;SDS011;50314;50.618;10.642;2023-05-07T08:42:44;5.18;;;3.40;;
64063;SDS011;50314;50.618;10.642;2023-05-07T08:45:11;4.03;;;3.15;;
64063;SDS011;50314;50.618;10.642;2023-05-07T08:47:43;4.68;;;3.20;;
64063;SDS011;50314;50.618;10.642;2023-05-07T08:50:11;4.13;;;2.97;;
64063;SDS011;50314;50.618;10.642;2023-05-07T08:52:37;4.75;;;3.28;;
64063;SDS011;50314;50.618;10.642;2023-05-07T08:55:03;3.90;;;3.00;;
64063;SDS011;50314;50.618;10.642;2023-05-07T08:57:30;3.88;;;2.65;;
64063;SDS011;50314;50.618;10.642;2023-05-07T08:59:55;4.05;;;3.03;;
64063;SDS011;50314;50.618;10.642;2023-05-07T09:02:20;4.65;;;3.10;;
64063;SDS011;50314;50.618;10.642;2023-05-07T09:04:46;4.00;;;2.88;;
64063;SDS011;50314;50.618;10.642;2023-05-07T09:07:11;3.80;;;2.63;;
64063;SDS011;50314;50.618;10.642;2023-05-07T09:09:37;5.60;;;3.15;;
64063;SDS011;50314;50.618;10.642;2023-05-07T09:12:02;4.20;;;2.83;;
64063;SDS011;50314;50.618;10.642;2023-05-07T09:14:28;3.10;;;2.47;;
64063;SDS011;50314;50.618;10.642;2023-05-07T09:16:55;3.83;;;2.50;;
64063;SDS011;50314;50.618;10.642;2023-05-07T09:19:24;4.63;;;3.00;;
64063;SDS011;50314;50.618;10.642;2023-05-07T09:21:58;3.13;;;2.20;;
64063;SDS011;50314;50.618;10.642;2023-05-07T09:24:27;3.55;;;2.38;;
64063;SDS011;50314;50.618;10.642;2023-05-07T09:26:57;6.22;;;2.88;;
64063;SDS011;50314;50.618;10.642;2023-05-07T09:29:23;4.03;;;2.58;;
64063;SDS011;50314;50.618;10.642;2023-05-07T09:31:48;4.10;;;2.70;;
64063;SDS011;50314;50.618;10.642;2023-05-07T09:34:14;3.97;;;2.58;;
64063;SDS011;50314;50.618;10.642;2023-05-07T09:36:39;2.67;;;2.05;;
64063;SDS011;50314;50.618;10.642;2023-05-07T09:39:05;4.13;;;2.65;;
64063;SDS011;50314;50.618;10.642;2023-05-07T09:41:30;3.88;;;2.83;;
64063;SDS011;50314;50.618;10.642;2023-05-07T09:43:57;4.43;;;2.60;;
64063;SDS011;50314;50.618;10.642;2023-05-07T09:46:28;2.70;;;2.28;;
64063;SDS011;50314;50.618;10.642;2023-05-07T09:48:57;2.92;;;2.03;;
64063;SDS011;50314;50.618;10.642;2023-05-07T09:51:30;3.45;;;2.17;;
64063;SDS011;50314;50.618;10.642;2023-05-07T09:56:29;3.72;;;2.20;;
64063;SDS011;50314;50.618;10.642;2023-05-07T09:58:57;3.15;;;2.40;;
64063;SDS011;50314;50.618;10.642;2023-05-07T10:01:27;3.83;;;2.75;;
64063;SDS011;50314;50.618;10.642;2023-05-07T10:03:55;3.83;;;2.17;;
64063;SDS011;50314;50.618;10.642;2023-05-07T10:06:24;3.08;;;2.40;;
64063;SDS011;50314;50.618;10.642;2023-05-07T10:08:51;3.70;;;2.30;;
64063;SDS011;50314;50.618;10.642;2023-05-07T10:11:17;3.22;;;2.25;;
64063;SDS011;50314;50.618;10.642;2023-05-07T10:13:43;2.80;;;2.15;;
64063;SDS011;50314;50.618;10.642;2023-05-07T10:16:08;3.65;;;2.35;;
64063;SDS011;50314;50.618;10.642;2023-05-07T10:18:34;3.15;;;2.33;;
64063;SDS011;50314;50.618;10.642;2023-05-07T10:21:19;2.97;;;2.28;;
64063;SDS011;50314;50.618;10.642;2023-05-07T10:26:14;2.78;;;1.83;;
64063;SDS011;50314;50.618;10.642;2023-05-07T10:28:43;3.00;;;2.08;;
64063;SDS011;50314;50.618;10.642;2023-05-07T10:31:15;3.35;;;2.22;;
64063;SDS011;50314;50.618;10.642;2023-05-07T10:33:43;4.53;;;2.00;;
64063;SDS011;50314;50.618;10.642;2023-05-07T10:36:11;2.47;;;1.67;;
64063;SDS011;50314;50.618;10.642;2023-05-07T10:38:37;4.45;;;2.10;;
64063;SDS011;50314;50.618;10.642;2023-05-07T10:41:04;3.13;;;2.00;;
64063;SDS011;50314;50.618;10.642;2023-05-07T10:43:40;4.10;;;2.92;;
64063;SDS011;50314;50.618;10.642;2023-05-07T10:49:19;4.55;;;2.40;;
64063;SDS011;50314;50.618;10.642;2023-05-07T10:51:26;2.97;;;2.00;;
64063;SDS011;50314;50.618;10.642;2023-05-07T10:56:36;3.63;;;2.50;;
64063;SDS011;50314;50.618;10.642;2023-05-07T11:01:55;4.82;;;2.80;;
64063;SDS011;50314;50.618;10.642;2023-05-07T11:04:22;3.92;;;2.65;;
64063;SDS011;50314;50.618;10.642;2023-05-07T11:10:16;2.78;;;2.13;;
64063;SDS011;50314;50.618;10.642;2023-05-07T11:15:01;3.35;;;2.58;;
64063;SDS011;50314;50.618;10.642;2023-05-07T11:17:34;4.65;;;2.38;;
64063;SDS011;50314;50.618;10.642;2023-05-07T11:20:19;2.83;;;1.90;;
64063;SDS011;50314;50.618;10.642;2023-05-07T11:22:45;2.38;;;2.10;;
64063;SDS011;50314;50.618;10.642;2023-05-07T11:25:14;3.90;;;2.40;;
64063;SDS011;50314;50.618;10.642;2023-05-07T11:27:43;3.35;;;2.40;;
64063;SDS011;50314;50.618;10.642;2023-05-07T11:30:09;3.22;;;2.33;;
64063;SDS011;50314;50.618;10.642;2023-05-07T11:32:36;3.22;;;2.20;;
64063;SDS011;50314;50.618;10.642;2023-05-07T11:35:02;3.53;;;2.42;;
64063;SDS011;50314;50.618;10.642;2023-05-07T11:37:27;3.58;;;2.35;;
64063;SDS011;50314;50.618;10.642;2023-05-07T11:40:04;3.97;;;2.33;;
64063;SDS011;50314;50.618;10.642;2023-05-07T11:42:35;2.65;;;2.13;;
64063;SDS011;50314;50.618;10.642;2023-05-07T11:45:02;3.80;;;2.33;;
64063;SDS011;50314;50.618;10.642;2023-05-07T11:47:32;4.57;;;2.53;;
64063;SDS011;50314;50.618;10.642;2023-05-07T11:50:02;2.92;;;2.50;;
64063;SDS011;50314;50.618;10.642;2023-05-07T11:52:32;3.97;;;2.30;;
64063;SDS011;50314;50.618;10.642;2023-05-07T11:57:28;3.38;;;2.45;;
64063;SDS011;50314;50.618;10.642;2023-05-07T11:59:54;3.50;;;2.20;;
64063;SDS011;50314;50.618;10.642;2023-05-07T12:02:20;4.38;;;2.78;;
64063;SDS011;50314;50.618;10.642;2023-05-07T12:04:46;3.38;;;2.55;;
64063;SDS011;50314;50.618;10.642;2023-05-07T12:07:12;3.08;;;2.55;;
64063;SDS011;50314;50.618;10.642;2023-05-07T12:09:41;3.42;;;2.30;;
64063;SDS011;50314;50.618;10.642;2023-05-07T12:12:08;5.00;;;3.03;;
64063;SDS011;50314;50.618;10.642;2023-05-07T12:14:42;3.92;;;2.58;;
64063;SDS011;50314;50.618;10.642;2023-05-07T12:17:09;5.57;;;2.60;;
64063;SDS011;50314;50.618;10.642;2023-05-07T12:19:36;3.60;;;2.40;;
64063;SDS011;50314;50.618;10.642;2023-05-07T12:22:03;3.78;;;2.17;;
64063;SDS011;50314;50.618;10.642;2023-05-07T12:24:41;4.70;;;2.40;;
64063;SDS011;50314;50.618;10.642;2023-05-07T12:27:11;4.85;;;2.60;;
64063;SDS011;50314;50.618;10.642;2023-05-07T12:29:37;6.55;;;2.50;;
64063;SDS011;50314;50.618;10.642;2023-05-07T12:32:05;3.25;;;2.15;;
64063;SDS011;50314;50.618;10.642;2023-05-07T12:34:31;2.90;;;2.35;;
64063;SDS011;50314;50.618;10.642;2023-05-07T12:36:57;3.00;;;2.03;;
64063;SDS011;50314;50.618;10.642;2023-05-07T12:39:28;3.63;;;2.35;;
64063;SDS011;50314;50.618;10.642;2023-05-07T12:41:54;3.25;;;2.10;;
64063;SDS011;50314;50.618;10.642;2023-05-07T12:44:25;3.00;;;2.13;;
64063;SDS011;50314;50.618;10.642;2023-05-07T12:46:55;3.67;;;2.33;;
64063;SDS011;50314;50.618;10.642;2023-05-07T12:49:20;3.13;;;2.03;;
64063;SDS011;50314;50.618;10.642;2023-05-07T12:51:46;3.63;;;2.75;;
64063;SDS011;50314;50.618;10.642;2023-05-07T12:54:13;3.38;;;2.40;;
64063;SDS011;50314;50.618;10.642;2023-05-07T12:56:39;3.92;;;2.63;;
64063;SDS011;50314;50.618;10.642;2023-05-07T12:59:05;4.00;;;2.53;;
64063;SDS011;50314;50.618;10.642;2023-05-07T13:01:30;3.83;;;2.50;;
64063;SDS011;50314;50.618;10.642;2023-05-07T13:03:57;3.58;;;2.28;;
64063;SDS011;50314;50.618;10.642;2023-05-07T13:06:26;4.50;;;2.85;;
64063;SDS011;50314;50.618;10.642;2023-05-07T13:08:51;3.13;;;2.22;;
64063;SDS011;50314;50.618;10.642;2023-05-07T13:11:16;10.55;;;2.78;;
64063;SDS011;50314;50.618;10.642;2023-05-07T13:13:45;3.55;;;2.15;;
64063;SDS011;50314;50.618;10.642;2023-05-07T13:16:11;7.32;;;3.13;;
64063;SDS011;50314;50.618;10.642;2023-05-07T13:18:38;4.65;;;2.65;;
64063;SDS011;50314;50.618;10.642;2023-05-07T13:21:04;3.78;;;2.70;;
64063;SDS011;50314;50.618;10.642;2023-05-07T13:23:29;5.15;;;2.80;;
64063;SDS011;50314;50.618;10.642;2023-05-07T13:25:55;6.72;;;4.00;;
64063;SDS011;50314;50.618;10.642;2023-05-07T13:28:21;5.32;;;3.05;;
64063;SDS011;50314;50.618;10.642;2023-05-07T13:30:47;4.80;;;3.00;;
64063;SDS011;50314;50.618;10.642;2023-05-07T13:33:13;4.30;;;3.20;;
64063;SDS011;50314;50.618;10.642;2023-05-07T13:35:40;4.35;;;3.13;;
64063;SDS011;50314;50.618;10.642;2023-05-07T13:38:06;4.57;;;2.92;;
64063;SDS011;50314;50.618;10.642;2023-05-07T13:40:31;5.55;;;3.47;;
64063;SDS011;50314;50.618;10.642;2023-05-07T13:42:57;6.18;;;3.00;;
64063;SDS011;50314;50.618;10.642;2023-05-07T13:45:24;5.53;;;3.42;;
64063;SDS011;50314;50.618;10.642;2023-05-07T13:47:51;5.60;;;3.22;;
64063;SDS011;50314;50.618;10.642;2023-05-07T13:50:17;5.65;;;3.13;;
64063;SDS011;50314;50.618;10.642;2023-05-07T13:52:43;5.50;;;3.15;;
64063;SDS011;50314;50.618;10.642;2023-05-07T13:55:15;4.20;;;3.28;;
64063;SDS011;50314;50.618;10.642;2023-05-07T13:57:43;5.30;;;3.40;;
64063;SDS011;50314;50.618;10.642;2023-05-07T14:00:09;6.15;;;3.20;;
64063;SDS011;50314;50.618;10.642;2023-05-07T14:02:35;5.07;;;3.28;;
64063;SDS011;50314;50.618;10.642;2023-05-07T14:05:01;6.10;;;3.17;;
64063;SDS011;50314;50.618;10.642;2023-05-07T14:07:26;4.45;;;3.42;;
64063;SDS011;50314;50.618;10.642;2023-05-07T14:09:52;4.63;;;2.78;;
64063;SDS011;50314;50.618;10.642;2023-05-07T14:12:17;4.45;;;3.33;;
64063;SDS011;50314;50.618;10.642;2023-05-07T14:14:43;4.85;;;3.20;;
64063;SDS011;50314;50.618;10.642;2023-05-07T14:17:08;4.60;;;3.17;;
64063;SDS011;50314;50.618;10.642;2023-05-07T14:19:34;4.10;;;3.13;;
64063;SDS011;50314;50.618;10.642;2023-05-07T14:21:59;5.68;;;3.00;;
64063;SDS011;50314;50.618;10.642;2023-05-07T14:24:24;4.90;;;3.20;;
64063;SDS011;50314;50.618;10.642;2023-05-07T14:26:50;4.28;;;3.20;;
64063;SDS011;50314;50.618;10.642;2023-05-07T14:29:16;3.80;;;2.80;;
64063;SDS011;50314;50.618;10.642;2023-05-07T14:31:44;3.88;;;3.17;;
64063;SDS011;50314;50.618;10.642;2023-05-07T14:34:10;4.47;;;3.28;;
64063;SDS011;50314;50.618;10.642;2023-05-07T14:36:35;4.97;;;3.30;;
64063;SDS011;50314;50.618;10.642;2023-05-07T14:39:01;4.95;;;3.45;;
64063;SDS011;50314;50.618;10.642;2023-05-07T14:41:26;3.60;;;2.92;;
64063;SDS011;50314;50.618;10.642;2023-05-07T14:43:52;8.45;;;4.40;;
64063;SDS011;50314;50.618;10.642;2023-05-07T14:46:17;5.15;;;3.92;;
64063;SDS011;50314;50.618;10.642;2023-05-07T14:48:46;4.63;;;3.97;;
64063;SDS011;50314;50.618;10.642;2023-05-07T14:51:12;4.18;;;3.40;;
64063;SDS011;50314;50.618;10.642;2023-05-07T14:53:38;4.07;;;3.53;;
64063;SDS011;50314;50.618;10.642;2023-05-07T14:56:03;4.00;;;3.60;;
64063;SDS011;50314;50.618;10.642;2023-05-07T14:58:30;4.50;;;3.35;;